createdAt,value
2022-08-19T00:00:40.739Z,89.86
2022-08-19T00:03:09.249Z,90.89
2022-08-19T00:05:37.420Z,90.16
2022-08-19T00:08:05.896Z,89.89
2022-08-19T00:10:34.960Z,89.59
2022-08-19T00:13:05.148Z,90.54
2022-08-19T00:15:32.955Z,89.11
2022-08-19T00:18:00.757Z,90.47
2022-08-19T00:20:28.780Z,90.19
2022-08-19T00:22:56.617Z,89.81
2022-08-19T00:25:30.227Z,89.90
2022-08-19T00:27:58.640Z,89.49
2022-08-19T00:30:28.452Z,88.98
2022-08-19T00:32:56.456Z,88.93
2022-08-19T00:35:25.120Z,88.98
2022-08-19T00:37:52.879Z,90.57
2022-08-19T00:40:21.233Z,90.71
2022-08-19T00:42:49.519Z,92.21
2022-08-19T00:45:21.393Z,91.56
2022-08-19T00:47:50.517Z,91.19
2022-08-19T00:50:21.713Z,90.79
2022-08-19T00:52:52.821Z,91.24
2022-08-19T00:55:24.130Z,91.06
2022-08-19T00:57:56.959Z,91.10
2022-08-19T01:00:27.716Z,91.23
2022-08-19T01:02:57.677Z,93.30
2022-08-19T01:05:28.464Z,93.09
2022-08-19T01:07:58.090Z,92.74
2022-08-19T01:10:31.553Z,93.67
2022-08-19T01:13:03.094Z,94.68
2022-08-19T01:15:33.291Z,95.41
2022-08-19T01:18:08.096Z,96.67
2022-08-19T01:20:36.526Z,96.40
2022-08-19T01:23:05.816Z,96.84
2022-08-19T01:25:38.402Z,96.43
2022-08-19T01:28:10.859Z,96.94
2022-08-19T01:30:39.819Z,97.55
2022-08-19T01:33:12.500Z,98.27
2022-08-19T01:35:40.901Z,97.44
2022-08-19T01:38:12.790Z,96.59
2022-08-19T01:40:43.098Z,99.80
2022-08-19T01:43:10.832Z,99.44
2022-08-19T01:45:41.161Z,98.73
2022-08-19T01:48:09.813Z,99.70
2022-08-19T01:50:38.250Z,99.81
2022-08-19T01:53:11.390Z,100.00
2022-08-19T01:55:43.006Z,100.00
2022-08-19T01:58:14.424Z,100.00
2022-08-19T02:00:43.099Z,100.00
2022-08-19T02:03:12.246Z,100.00
2022-08-19T02:05:40.513Z,100.00
2022-08-19T02:08:09.066Z,100.00
2022-08-19T02:10:43.211Z,100.00
2022-08-19T02:13:11.220Z,100.00
2022-08-19T02:15:39.474Z,100.00
2022-08-19T02:18:09.190Z,100.00
2022-08-19T02:20:37.720Z,100.00
2022-08-19T02:23:05.707Z,100.00
2022-08-19T02:25:43.750Z,100.00
2022-08-19T02:28:14.581Z,100.00
2022-08-19T02:30:45.725Z,100.00
2022-08-19T02:33:13.440Z,100.00
2022-08-19T02:35:43.603Z,100.00
2022-08-19T02:38:29.868Z,100.00
2022-08-19T02:41:02.034Z,100.00
2022-08-19T02:43:33.814Z,100.00
2022-08-19T02:46:03.008Z,100.00
2022-08-19T02:48:31.040Z,100.00
2022-08-19T02:50:58.785Z,100.00
2022-08-19T02:53:28.970Z,100.00
2022-08-19T02:55:56.809Z,100.00
2022-08-19T02:58:27.580Z,100.00
2022-08-19T03:00:57.718Z,100.00
2022-08-19T03:03:25.510Z,100.00
2022-08-19T03:05:56.821Z,100.00
2022-08-19T03:08:26.519Z,100.00
2022-08-19T03:10:54.834Z,100.00
2022-08-19T03:13:22.636Z,100.00
2022-08-19T03:15:51.743Z,100.00
2022-08-19T03:18:19.505Z,100.00
2022-08-19T03:20:49.409Z,100.00
2022-08-19T03:23:17.928Z,100.00
2022-08-19T03:26:02.765Z,100.00
2022-08-19T03:28:36.193Z,100.00
2022-08-19T03:31:42.021Z,100.00
2022-08-19T03:33:57.430Z,100.00
2022-08-19T03:36:29.480Z,100.00
2022-08-19T03:39:00.179Z,100.00
2022-08-19T03:41:44.599Z,100.00
2022-08-19T03:44:17.665Z,100.00
2022-08-19T03:46:48.710Z,100.00
2022-08-19T03:49:18.169Z,100.00
2022-08-19T03:51:47.412Z,100.00
2022-08-19T03:54:17.691Z,100.00
2022-08-19T03:56:47.658Z,100.00
2022-08-19T03:59:18.419Z,100.00
2022-08-19T04:01:47.637Z,100.00
2022-08-19T04:04:15.421Z,100.00
2022-08-19T04:06:43.361Z,100.00
2022-08-19T04:09:12.876Z,100.00
2022-08-19T04:11:46.468Z,100.00
2022-08-19T04:14:16.654Z,100.00
2022-08-19T04:16:45.481Z,100.00
2022-08-19T04:19:16.061Z,100.00
2022-08-19T04:21:46.888Z,100.00
2022-08-19T04:24:15.429Z,100.00
2022-08-19T04:26:43.772Z,100.00
2022-08-19T04:29:15.246Z,100.00
2022-08-19T04:31:45.994Z,100.00
2022-08-19T04:34:18.187Z,100.00
2022-08-19T04:36:46.786Z,100.00
2022-08-19T04:39:18.895Z,100.00
2022-08-19T04:42:04.705Z,100.00
2022-08-19T04:44:33.373Z,100.00
2022-08-19T04:47:10.984Z,100.00
2022-08-19T04:49:41.031Z,100.00
2022-08-19T04:52:09.384Z,100.00
2022-08-19T04:54:39.245Z,100.00
2022-08-19T04:57:10.562Z,100.00
2022-08-19T04:59:38.805Z,100.00
2022-08-19T05:02:08.322Z,100.00
2022-08-19T05:04:39.558Z,100.00
2022-08-19T05:07:10.257Z,100.00
2022-08-19T05:09:57.798Z,100.00
2022-08-19T05:12:28.927Z,100.00
2022-08-19T05:14:57.814Z,100.00
2022-08-19T05:17:27.926Z,100.00
2022-08-19T05:20:22.273Z,100.00
2022-08-19T05:22:51.788Z,100.00
2022-08-19T05:25:21.983Z,100.00
2022-08-19T05:27:50.256Z,100.00
2022-08-19T05:30:33.583Z,100.00
2022-08-19T05:33:07.297Z,100.00
2022-08-19T05:35:35.074Z,100.00
2022-08-19T05:38:04.230Z,100.00
2022-08-19T05:40:31.991Z,100.00
2022-08-19T05:42:59.730Z,100.00
2022-08-19T05:45:27.526Z,100.00
2022-08-19T05:47:55.261Z,100.00
2022-08-19T05:50:23.537Z,100.00
2022-08-19T05:52:51.486Z,100.00
2022-08-19T05:55:21.170Z,100.00
2022-08-19T05:57:49.101Z,100.00
2022-08-19T06:00:20.410Z,100.00
2022-08-19T06:02:52.887Z,100.00
2022-08-19T06:05:21.131Z,100.00
2022-08-19T06:07:48.879Z,100.00
2022-08-19T06:10:16.669Z,100.00
2022-08-19T06:12:45.907Z,100.00
2022-08-19T06:15:15.474Z,100.00
2022-08-19T06:17:45.295Z,100.00
2022-08-19T06:20:16.133Z,100.00
2022-08-19T06:22:45.789Z,100.00
2022-08-19T06:25:14.729Z,100.00
2022-08-19T06:30:32.183Z,100.00
2022-08-19T06:32:59.937Z,100.00
2022-08-19T06:35:27.960Z,100.00
2022-08-19T06:37:55.802Z,100.00
2022-08-19T06:40:24.385Z,100.00
2022-08-19T06:42:55.112Z,100.00
2022-08-19T06:45:25.161Z,100.00
2022-08-19T06:48:04.209Z,100.00
2022-08-19T06:50:31.964Z,100.00
2022-08-19T06:53:01.370Z,100.00
2022-08-19T06:55:33.349Z,100.00
2022-08-19T06:58:04.625Z,100.00
2022-08-19T07:00:32.630Z,100.00
2022-08-19T07:03:04.816Z,100.00
2022-08-19T07:05:45.391Z,100.00
2022-08-19T07:08:13.682Z,100.00
2022-08-19T07:10:45.731Z,100.00
2022-08-19T07:13:13.535Z,100.00
2022-08-19T07:15:41.313Z,100.00
2022-08-19T07:18:11.654Z,100.00
2022-08-19T07:20:42.713Z,100.00
2022-08-19T07:23:16.054Z,100.00
2022-08-19T07:25:52.938Z,100.00
2022-08-19T07:28:24.709Z,100.00
2022-08-19T07:30:53.065Z,100.00
2022-08-19T07:33:21.214Z,100.00
2022-08-19T07:35:50.751Z,100.00
2022-08-19T07:38:18.789Z,100.00
2022-08-19T07:40:47.745Z,100.00
2022-08-19T07:43:18.014Z,100.00
2022-08-19T07:45:47.998Z,100.00
2022-08-19T07:48:16.431Z,100.00
2022-08-19T07:50:44.806Z,100.00
2022-08-19T07:53:14.140Z,100.00
2022-08-19T07:55:43.893Z,100.00
2022-08-19T07:58:13.958Z,100.00
2022-08-19T08:00:42.599Z,100.00
2022-08-19T08:03:10.589Z,100.00
2022-08-19T08:05:55.767Z,100.00
2022-08-19T08:08:44.330Z,100.00
2022-08-19T08:11:15.532Z,100.00
2022-08-19T08:13:43.667Z,100.00
2022-08-19T08:16:14.027Z,100.00
2022-08-19T08:18:50.602Z,100.00
2022-08-19T08:21:20.935Z,100.00
2022-08-19T08:23:52.074Z,100.00
2022-08-19T08:26:21.027Z,100.00
2022-08-19T08:28:49.505Z,100.00
2022-08-19T08:31:19.489Z,100.00
2022-08-19T08:33:48.871Z,100.00
2022-08-19T08:36:17.438Z,100.00
2022-08-19T08:38:47.262Z,100.00
2022-08-19T08:41:24.434Z,100.00
2022-08-19T08:43:54.326Z,100.00
2022-08-19T08:46:31.496Z,100.00
2022-08-19T08:49:08.371Z,100.00
2022-08-19T08:54:20.029Z,100.00
2022-08-19T08:56:51.624Z,100.00
2022-08-19T08:59:25.186Z,100.00
2022-08-19T09:01:53.054Z,100.00
2022-08-19T09:04:21.061Z,100.00
2022-08-19T09:06:56.927Z,100.00
2022-08-19T09:09:33.239Z,100.00
2022-08-19T09:12:12.016Z,100.00
2022-08-19T09:14:50.703Z,100.00
2022-08-19T09:17:21.208Z,100.00
2022-08-19T09:19:53.624Z,100.00
2022-08-19T09:22:25.690Z,99.94
2022-08-19T09:24:54.200Z,99.20
2022-08-19T09:27:41.810Z,100.00
2022-08-19T09:30:16.214Z,100.00
2022-08-19T09:32:44.442Z,100.00
2022-08-19T09:35:13.440Z,100.00
2022-08-19T09:37:41.366Z,100.00
2022-08-19T09:40:12.261Z,100.00
2022-08-19T09:42:50.194Z,100.00
2022-08-19T09:45:22.986Z,98.56
2022-08-19T09:47:54.201Z,98.70
2022-08-19T09:50:23.752Z,99.37
2022-08-19T09:52:55.098Z,99.14
2022-08-19T09:55:31.155Z,99.02
2022-08-19T09:58:02.787Z,98.41
2022-08-19T10:00:31.221Z,96.49
2022-08-19T10:02:59.046Z,95.68
2022-08-19T10:05:44.174Z,99.49
2022-08-19T10:08:13.441Z,100.00
2022-08-19T10:10:44.128Z,100.00
2022-08-19T10:13:18.253Z,96.77
2022-08-19T10:15:47.304Z,96.09
2022-08-19T10:18:17.691Z,95.67
2022-08-19T10:20:51.641Z,93.54
2022-08-19T10:23:21.069Z,93.44
2022-08-19T10:25:49.786Z,94.21
2022-08-19T10:28:19.279Z,90.04
2022-08-19T10:30:47.922Z,90.18
2022-08-19T10:33:38.671Z,91.41
2022-08-19T10:36:05.511Z,93.65
2022-08-19T10:38:34.857Z,93.47
2022-08-19T10:41:10.091Z,94.59
2022-08-19T10:43:40.640Z,99.35
2022-08-19T10:46:14.199Z,100.00
2022-08-19T10:48:45.539Z,100.00
2022-08-19T10:51:31.326Z,100.00
2022-08-19T10:54:00.041Z,100.00
2022-08-19T10:56:45.861Z,100.00
2022-08-19T10:59:15.608Z,100.00
2022-08-19T11:01:44.650Z,100.00
2022-08-19T11:04:14.577Z,100.00
2022-08-19T11:06:44.374Z,100.00
2022-08-19T11:09:12.891Z,100.00
2022-08-19T11:11:41.892Z,100.00
2022-08-19T11:14:10.809Z,100.00
2022-08-19T11:16:40.358Z,100.00
2022-08-19T11:19:09.678Z,100.00
2022-08-19T11:21:40.338Z,100.00
2022-08-19T11:24:10.626Z,100.00
2022-08-19T11:26:39.622Z,100.00
2022-08-19T11:29:12.452Z,100.00
2022-08-19T11:31:43.650Z,100.00
2022-08-19T11:34:14.562Z,100.00
2022-08-19T11:36:46.001Z,100.00
2022-08-19T11:39:16.707Z,100.00
2022-08-19T11:41:44.740Z,100.00
2022-08-19T11:44:14.948Z,100.00
2022-08-19T11:46:46.474Z,100.00
2022-08-19T11:49:15.810Z,100.00
2022-08-19T11:51:44.230Z,100.00
2022-08-19T11:54:13.702Z,100.00
2022-08-19T11:56:42.629Z,100.00
2022-08-19T11:59:14.813Z,100.00
2022-08-19T12:01:44.702Z,100.00
2022-08-19T12:04:13.170Z,100.00
2022-08-19T12:06:42.831Z,100.00
2022-08-19T12:09:11.935Z,100.00
2022-08-19T12:11:41.468Z,100.00
2022-08-19T12:14:14.823Z,100.00
2022-08-19T12:16:49.214Z,100.00
2022-08-19T12:19:21.754Z,100.00
2022-08-19T12:21:51.330Z,100.00
2022-08-19T12:24:23.776Z,100.00
2022-08-19T12:26:52.523Z,100.00
2022-08-19T12:29:23.842Z,100.00
2022-08-19T12:31:53.826Z,100.00
2022-08-19T12:34:21.793Z,100.00
2022-08-19T12:36:50.387Z,100.00
2022-08-19T12:39:18.333Z,100.00
2022-08-19T12:41:53.995Z,100.00
2022-08-19T12:44:24.869Z,100.00
2022-08-19T12:47:01.389Z,100.00
2022-08-19T12:49:53.921Z,100.00
2022-08-19T12:52:23.159Z,100.00
2022-08-19T12:54:54.644Z,100.00
2022-08-19T12:57:27.062Z,100.00
2022-08-19T13:00:04.997Z,100.00
2022-08-19T13:02:39.084Z,100.00
2022-08-19T13:05:12.223Z,100.00
2022-08-19T13:07:41.248Z,100.00
2022-08-19T13:10:12.743Z,100.00
2022-08-19T13:12:41.872Z,100.00
2022-08-19T13:15:11.358Z,100.00
2022-08-19T13:17:42.050Z,100.00
2022-08-19T13:20:12.049Z,100.00
2022-08-19T13:22:40.362Z,100.00
2022-08-19T13:25:09.737Z,100.00
2022-08-19T13:27:38.240Z,100.00
2022-08-19T13:30:27.355Z,100.00
2022-08-19T13:33:16.183Z,100.00
2022-08-19T13:35:47.276Z,100.00
2022-08-19T13:38:16.503Z,100.00
2022-08-19T13:40:44.386Z,100.00
2022-08-19T13:43:12.419Z,100.00
2022-08-19T13:45:53.576Z,100.00
2022-08-19T13:48:23.562Z,100.00
2022-08-19T13:50:51.349Z,100.00
2022-08-19T13:53:19.446Z,100.00
2022-08-19T13:55:47.532Z,100.00
2022-08-19T13:58:15.473Z,100.00
2022-08-19T14:00:45.780Z,100.00
2022-08-19T14:03:13.901Z,100.00
2022-08-19T14:05:43.297Z,100.00
2022-08-19T14:08:11.366Z,100.00
2022-08-19T14:10:39.186Z,100.00
2022-08-19T14:13:06.999Z,100.00
2022-08-19T14:15:34.788Z,100.00
2022-08-19T14:18:02.571Z,100.00
2022-08-19T14:20:30.837Z,100.00
2022-08-19T14:23:00.285Z,100.00
2022-08-19T14:25:31.515Z,100.00
2022-08-19T14:27:59.700Z,100.00
2022-08-19T14:30:30.347Z,100.00
2022-08-19T14:32:59.607Z,100.00
2022-08-19T14:35:27.755Z,100.00
2022-08-19T14:37:56.473Z,100.00
2022-08-19T14:40:28.563Z,100.00
2022-08-19T14:43:00.309Z,100.00
2022-08-19T14:45:28.943Z,100.00
2022-08-19T14:47:56.963Z,100.00
2022-08-19T14:50:24.844Z,100.00
2022-08-19T14:53:03.586Z,100.00
2022-08-19T14:55:38.190Z,100.00
2022-08-19T14:58:08.814Z,100.00
2022-08-19T15:00:37.208Z,100.00
2022-08-19T15:03:05.417Z,100.00
2022-08-19T15:05:34.114Z,100.00
2022-08-19T15:08:05.113Z,100.00
2022-08-19T15:10:32.838Z,100.00
2022-08-19T15:13:02.389Z,100.00
2022-08-19T15:15:30.120Z,100.00
2022-08-19T15:18:03.184Z,100.00
2022-08-19T15:20:31.650Z,100.00
2022-08-19T15:22:59.765Z,100.00
2022-08-19T15:25:28.437Z,100.00
2022-08-19T15:27:56.354Z,100.00
2022-08-19T15:30:28.097Z,100.00
2022-08-19T15:32:56.902Z,100.00
2022-08-19T15:35:26.153Z,100.00
2022-08-19T15:37:55.212Z,100.00
2022-08-19T15:40:25.174Z,100.00
2022-08-19T15:42:54.023Z,100.00
2022-08-19T15:45:23.647Z,100.00
2022-08-19T15:47:52.817Z,100.00
2022-08-19T15:50:22.202Z,100.00
2022-08-19T15:52:51.970Z,100.00
2022-08-19T15:55:32.523Z,100.00
2022-08-19T15:58:27.747Z,100.00
2022-08-19T16:01:15.431Z,100.00
2022-08-19T16:04:02.350Z,100.00
2022-08-19T16:06:32.537Z,100.00
2022-08-19T16:09:02.907Z,100.00
2022-08-19T16:11:39.152Z,100.00
2022-08-19T16:14:09.294Z,100.00
2022-08-19T16:16:39.459Z,100.00
2022-08-19T16:19:11.804Z,100.00
2022-08-19T16:21:41.999Z,100.00
2022-08-19T16:24:13.151Z,100.00
2022-08-19T16:26:42.111Z,100.00
2022-08-19T16:29:12.105Z,100.00
2022-08-19T16:31:43.282Z,100.00
2022-08-19T16:34:13.196Z,100.00
2022-08-19T16:36:42.059Z,100.00
2022-08-19T16:39:10.958Z,100.00
2022-08-19T16:41:39.567Z,100.00
2022-08-19T16:44:08.218Z,100.00
2022-08-19T16:46:37.221Z,100.00
2022-08-19T16:49:05.550Z,100.00
2022-08-19T16:51:34.842Z,100.00
2022-08-19T16:54:03.478Z,100.00
2022-08-19T16:56:32.518Z,100.00
2022-08-19T16:59:00.648Z,100.00
2022-08-19T17:01:28.951Z,100.00
2022-08-19T17:03:57.553Z,100.00
2022-08-19T17:06:27.960Z,100.00
2022-08-19T17:08:59.242Z,100.00
2022-08-19T17:11:28.857Z,100.00
2022-08-19T17:13:56.732Z,100.00
2022-08-19T17:16:28.269Z,100.00
2022-08-19T17:18:57.506Z,100.00
2022-08-19T17:21:28.728Z,100.00
2022-08-19T17:23:59.206Z,100.00
2022-08-19T17:26:27.807Z,100.00
2022-08-19T17:28:57.658Z,100.00
2022-08-19T17:31:28.274Z,100.00
2022-08-19T17:33:56.141Z,100.00
2022-08-19T17:36:26.128Z,100.00
2022-08-19T17:38:55.196Z,100.00
2022-08-19T17:41:25.079Z,100.00
2022-08-19T17:43:53.405Z,100.00
2022-08-19T17:46:21.401Z,100.00
2022-08-19T17:48:52.705Z,100.00
2022-08-19T17:51:23.857Z,100.00
2022-08-19T17:53:54.612Z,100.00
2022-08-19T17:56:24.812Z,100.00
2022-08-19T17:58:57.863Z,100.00
2022-08-19T18:01:28.794Z,100.00
2022-08-19T18:04:07.218Z,100.00
2022-08-19T18:06:36.631Z,100.00
2022-08-19T18:09:06.087Z,100.00
2022-08-19T18:11:35.477Z,100.00
2022-08-19T18:14:03.226Z,100.00
2022-08-19T18:16:32.468Z,100.00
2022-08-19T18:19:00.447Z,100.00
2022-08-19T18:21:31.716Z,100.00
2022-08-19T18:24:01.994Z,100.00
2022-08-19T18:26:30.238Z,100.00
2022-08-19T18:28:59.374Z,100.00
2022-08-19T18:31:29.099Z,100.00
2022-08-19T18:33:56.987Z,100.00
2022-08-19T18:36:52.150Z,100.00
2022-08-19T18:39:30.655Z,100.00
2022-08-19T18:42:12.294Z,100.00
2022-08-19T18:45:00.066Z,100.00
2022-08-19T18:47:45.741Z,100.00
2022-08-19T18:50:13.876Z,100.00
2022-08-19T18:52:41.753Z,100.00
2022-08-19T18:55:10.105Z,100.00
2022-08-19T18:57:37.877Z,100.00
2022-08-19T19:00:09.069Z,100.00
2022-08-19T19:02:39.525Z,100.00
2022-08-19T19:05:08.304Z,100.00
2022-08-19T19:07:36.386Z,100.00
2022-08-19T19:10:04.950Z,100.00
2022-08-19T19:12:36.271Z,100.00
2022-08-19T19:15:05.871Z,100.00
2022-08-19T19:17:35.130Z,100.00
2022-08-19T19:20:03.074Z,100.00
2022-08-19T19:22:30.856Z,100.00
2022-08-19T19:24:59.361Z,100.00
2022-08-19T19:27:27.304Z,100.00
2022-08-19T19:29:55.783Z,100.00
2022-08-19T19:32:28.401Z,100.00
2022-08-19T19:34:57.600Z,100.00
2022-08-19T19:37:25.320Z,100.00
2022-08-19T19:39:53.089Z,100.00
2022-08-19T19:42:23.742Z,100.00
2022-08-19T19:44:54.487Z,100.00
2022-08-19T19:47:24.325Z,100.00
2022-08-19T19:52:42.086Z,100.00
2022-08-19T19:55:11.754Z,100.00
2022-08-19T19:57:40.068Z,100.00
2022-08-19T20:00:09.913Z,100.00
2022-08-19T20:02:37.693Z,100.00
2022-08-19T20:05:06.678Z,100.00
2022-08-19T20:07:48.447Z,100.00
2022-08-19T20:10:17.801Z,100.00
2022-08-19T20:12:45.551Z,100.00
2022-08-19T20:15:14.810Z,100.00
2022-08-19T20:17:43.272Z,100.00
2022-08-19T20:20:12.328Z,100.00
2022-08-19T20:22:40.909Z,100.00
2022-08-19T20:25:09.358Z,100.00
2022-08-19T20:27:39.781Z,100.00
2022-08-19T20:30:13.082Z,100.00
2022-08-19T20:32:46.885Z,100.00
2022-08-19T20:35:15.474Z,100.00
2022-08-19T20:37:43.278Z,100.00
2022-08-19T20:40:13.125Z,100.00
2022-08-19T20:42:43.686Z,100.00
2022-08-19T20:45:31.961Z,100.00
2022-08-19T20:48:02.811Z,100.00
2022-08-19T20:50:31.533Z,100.00
2022-08-19T20:52:59.355Z,100.00
2022-08-19T20:55:28.853Z,100.00
2022-08-19T20:57:58.646Z,100.00
2022-08-19T21:00:26.427Z,100.00
2022-08-19T21:02:54.378Z,100.00
2022-08-19T21:05:22.338Z,100.00
2022-08-19T21:07:50.074Z,100.00
2022-08-19T21:10:18.068Z,100.00
2022-08-19T21:12:46.623Z,100.00
2022-08-19T21:15:17.191Z,100.00
2022-08-19T21:17:46.542Z,100.00
2022-08-19T21:20:14.286Z,100.00
2022-08-19T21:22:42.033Z,100.00
2022-08-19T21:25:09.975Z,100.00
2022-08-19T21:27:38.047Z,100.00
2022-08-19T21:30:06.634Z,100.00
2022-08-19T21:32:36.147Z,100.00
2022-08-19T21:35:04.093Z,100.00
2022-08-19T21:37:33.540Z,100.00
2022-08-19T21:40:01.395Z,100.00
2022-08-19T21:42:29.171Z,100.00
2022-08-19T21:44:56.915Z,100.00
2022-08-19T21:47:24.669Z,100.00
2022-08-19T21:49:53.769Z,100.00
2022-08-19T21:52:23.053Z,100.00
2022-08-19T21:54:50.859Z,100.00
2022-08-19T21:57:18.713Z,100.00
2022-08-19T21:59:46.449Z,100.00
2022-08-19T22:02:20.381Z,100.00
2022-08-19T22:04:49.499Z,100.00
2022-08-19T22:07:19.074Z,100.00
2022-08-19T22:09:48.781Z,100.00
2022-08-19T22:12:23.968Z,100.00
2022-08-19T22:14:52.712Z,100.00
2022-08-19T22:17:22.296Z,100.00
2022-08-19T22:19:50.928Z,100.00
2022-08-19T22:22:24.333Z,100.00
2022-08-19T22:24:52.258Z,100.00
2022-08-19T22:27:20.929Z,100.00
2022-08-19T22:29:52.550Z,100.00
2022-08-19T22:32:28.296Z,100.00
2022-08-19T22:34:58.727Z,100.00
2022-08-19T22:37:31.799Z,100.00
2022-08-19T22:40:00.599Z,100.00
2022-08-19T22:42:31.912Z,100.00
2022-08-19T22:45:01.109Z,100.00
2022-08-19T22:47:32.083Z,100.00
2022-08-19T22:50:03.726Z,100.00
2022-08-19T22:52:32.162Z,100.00
2022-08-19T22:55:03.446Z,100.00
2022-08-19T22:57:31.203Z,100.00
2022-08-19T23:00:01.224Z,100.00
2022-08-19T23:02:32.119Z,100.00
2022-08-19T23:05:02.419Z,100.00
2022-08-19T23:07:30.188Z,100.00
2022-08-19T23:09:59.688Z,100.00
2022-08-19T23:12:30.562Z,100.00
2022-08-19T23:15:02.727Z,100.00
2022-08-19T23:17:30.486Z,100.00
2022-08-19T23:19:59.617Z,100.00
2022-08-19T23:22:29.371Z,100.00
2022-08-19T23:24:57.523Z,100.00
2022-08-19T23:27:43.996Z,100.00
2022-08-19T23:30:27.379Z,100.00
2022-08-19T23:32:56.157Z,100.00
2022-08-19T23:35:25.144Z,100.00
2022-08-19T23:37:53.254Z,100.00
2022-08-19T23:40:22.194Z,100.00
2022-08-19T23:42:51.991Z,100.00
2022-08-19T23:45:23.591Z,100.00
2022-08-19T23:47:53.297Z,100.00
2022-08-19T23:50:21.669Z,100.00
2022-08-19T23:52:52.764Z,100.00
2022-08-19T23:55:24.492Z,100.00
2022-08-19T23:57:54.010Z,100.00
